sensor_id;sensor_type;location;lat;lon;timestamp;P1;durP1;ratioP1;P2;durP2;ratioP2
819;SDS011;392;48.838;2.322;2023-03-08T00:02:20;16.93;;;14.40;;
819;SDS011;392;48.838;2.322;2023-03-08T00:04:48;17.38;;;13.73;;
819;SDS011;392;48.838;2.322;2023-03-08T00:07:15;18.33;;;14.40;;
819;SDS011;392;48.838;2.322;2023-03-08T00:09:44;19.73;;;15.27;;
819;SDS011;392;48.838;2.322;2023-03-08T00:12:11;18.63;;;15.00;;
819;SDS011;392;48.838;2.322;2023-03-08T00:14:39;20.53;;;14.80;;
819;SDS011;392;48.838;2.322;2023-03-08T00:17:06;17.87;;;14.27;;
819;SDS011;392;48.838;2.322;2023-03-08T00:19:33;17.50;;;14.70;;
819;SDS011;392;48.838;2.322;2023-03-08T00:22:01;16.40;;;14.60;;
819;SDS011;392;48.838;2.322;2023-03-08T00:24:28;18.57;;;14.27;;
819;SDS011;392;48.838;2.322;2023-03-08T00:26:58;16.70;;;13.93;;
819;SDS011;392;48.838;2.322;2023-03-08T00:29:25;16.87;;;14.07;;
819;SDS011;392;48.838;2.322;2023-03-08T00:31:55;17.00;;;14.40;;
819;SDS011;392;48.838;2.322;2023-03-08T00:34:23;19.13;;;14.17;;
819;SDS011;392;48.838;2.322;2023-03-08T00:36:50;16.67;;;14.20;;
819;SDS011;392;48.838;2.322;2023-03-08T00:39:18;18.57;;;14.37;;
819;SDS011;392;48.838;2.322;2023-03-08T00:41:45;18.20;;;13.77;;
819;SDS011;392;48.838;2.322;2023-03-08T00:44:14;17.07;;;14.17;;
819;SDS011;392;48.838;2.322;2023-03-08T00:46:42;18.37;;;14.30;;
819;SDS011;392;48.838;2.322;2023-03-08T00:49:12;19.07;;;13.73;;
819;SDS011;392;48.838;2.322;2023-03-08T00:51:39;17.20;;;14.33;;
819;SDS011;392;48.838;2.322;2023-03-08T00:54:09;18.97;;;15.07;;
819;SDS011;392;48.838;2.322;2023-03-08T00:56:36;16.13;;;13.80;;
819;SDS011;392;48.838;2.322;2023-03-08T00:59:04;17.87;;;14.57;;
819;SDS011;392;48.838;2.322;2023-03-08T01:01:33;15.87;;;13.57;;
819;SDS011;392;48.838;2.322;2023-03-08T01:04:01;18.50;;;14.57;;
819;SDS011;392;48.838;2.322;2023-03-08T01:06:28;18.58;;;14.35;;
819;SDS011;392;48.838;2.322;2023-03-08T01:08:56;20.75;;;14.90;;
819;SDS011;392;48.838;2.322;2023-03-08T01:11:24;17.73;;;13.98;;
819;SDS011;392;48.838;2.322;2023-03-08T01:13:52;18.90;;;14.50;;
819;SDS011;392;48.838;2.322;2023-03-08T01:16:21;19.70;;;15.30;;
819;SDS011;392;48.838;2.322;2023-03-08T01:18:51;17.38;;;13.98;;
819;SDS011;392;48.838;2.322;2023-03-08T01:21:19;16.50;;;14.30;;
819;SDS011;392;48.838;2.322;2023-03-08T01:23:47;18.90;;;14.97;;
819;SDS011;392;48.838;2.322;2023-03-08T01:26:16;20.65;;;15.18;;
819;SDS011;392;48.838;2.322;2023-03-08T01:28:45;17.15;;;13.88;;
819;SDS011;392;48.838;2.322;2023-03-08T01:31:13;20.57;;;14.20;;
819;SDS011;392;48.838;2.322;2023-03-08T01:33:43;18.15;;;13.90;;
819;SDS011;392;48.838;2.322;2023-03-08T01:36:15;17.43;;;14.37;;
819;SDS011;392;48.838;2.322;2023-03-08T01:38:45;17.93;;;14.90;;
819;SDS011;392;48.838;2.322;2023-03-08T01:41:14;17.97;;;14.07;;
819;SDS011;392;48.838;2.322;2023-03-08T01:43:43;19.40;;;15.27;;
819;SDS011;392;48.838;2.322;2023-03-08T01:46:19;21.50;;;15.93;;
819;SDS011;392;48.838;2.322;2023-03-08T01:48:58;18.53;;;15.33;;
819;SDS011;392;48.838;2.322;2023-03-08T01:51:34;19.15;;;15.23;;
819;SDS011;392;48.838;2.322;2023-03-08T01:54:06;18.87;;;14.60;;
819;SDS011;392;48.838;2.322;2023-03-08T01:56:37;19.17;;;14.68;;
819;SDS011;392;48.838;2.322;2023-03-08T01:59:06;16.38;;;14.15;;
819;SDS011;392;48.838;2.322;2023-03-08T02:01:35;17.52;;;14.43;;
819;SDS011;392;48.838;2.322;2023-03-08T02:04:02;17.42;;;13.55;;
819;SDS011;392;48.838;2.322;2023-03-08T02:06:33;18.92;;;14.32;;
819;SDS011;392;48.838;2.322;2023-03-08T02:09:01;19.50;;;14.53;;
819;SDS011;392;48.838;2.322;2023-03-08T02:11:30;19.80;;;14.80;;
819;SDS011;392;48.838;2.322;2023-03-08T02:13:59;18.80;;;14.50;;
819;SDS011;392;48.838;2.322;2023-03-08T02:16:27;15.13;;;13.53;;
819;SDS011;392;48.838;2.322;2023-03-08T02:18:56;15.80;;;12.90;;
819;SDS011;392;48.838;2.322;2023-03-08T02:21:26;17.50;;;13.50;;
819;SDS011;392;48.838;2.322;2023-03-08T02:24:01;19.93;;;14.67;;
819;SDS011;392;48.838;2.322;2023-03-08T02:26:31;17.30;;;13.10;;
819;SDS011;392;48.838;2.322;2023-03-08T02:29:00;20.10;;;14.50;;
819;SDS011;392;48.838;2.322;2023-03-08T02:31:27;20.07;;;14.60;;
819;SDS011;392;48.838;2.322;2023-03-08T02:33:55;17.38;;;14.80;;
819;SDS011;392;48.838;2.322;2023-03-08T02:36:25;20.30;;;15.50;;
819;SDS011;392;48.838;2.322;2023-03-08T02:38:53;23.13;;;15.67;;
819;SDS011;392;48.838;2.322;2023-03-08T02:41:22;20.35;;;15.27;;
819;SDS011;392;48.838;2.322;2023-03-08T02:43:49;19.85;;;16.80;;
819;SDS011;392;48.838;2.322;2023-03-08T02:46:16;23.97;;;16.47;;
819;SDS011;392;48.838;2.322;2023-03-08T02:48:43;23.08;;;16.63;;
819;SDS011;392;48.838;2.322;2023-03-08T02:51:11;23.33;;;17.33;;
819;SDS011;392;48.838;2.322;2023-03-08T02:53:39;24.00;;;16.87;;
819;SDS011;392;48.838;2.322;2023-03-08T02:56:06;22.23;;;15.60;;
819;SDS011;392;48.838;2.322;2023-03-08T02:58:35;23.10;;;16.90;;
819;SDS011;392;48.838;2.322;2023-03-08T03:01:02;25.53;;;18.67;;
819;SDS011;392;48.838;2.322;2023-03-08T03:03:37;23.23;;;17.80;;
819;SDS011;392;48.838;2.322;2023-03-08T03:06:11;22.90;;;17.27;;
819;SDS011;392;48.838;2.322;2023-03-08T03:08:42;23.50;;;16.73;;
819;SDS011;392;48.838;2.322;2023-03-08T03:11:11;24.10;;;17.97;;
819;SDS011;392;48.838;2.322;2023-03-08T03:13:40;23.87;;;18.70;;
819;SDS011;392;48.838;2.322;2023-03-08T03:16:11;23.47;;;17.13;;
819;SDS011;392;48.838;2.322;2023-03-08T03:18:41;24.60;;;16.40;;
819;SDS011;392;48.838;2.322;2023-03-08T03:21:10;22.33;;;17.00;;
819;SDS011;392;48.838;2.322;2023-03-08T03:23:39;25.43;;;17.70;;
819;SDS011;392;48.838;2.322;2023-03-08T03:26:12;25.50;;;17.87;;
819;SDS011;392;48.838;2.322;2023-03-08T03:28:42;23.63;;;17.50;;
819;SDS011;392;48.838;2.322;2023-03-08T03:31:12;22.57;;;18.30;;
819;SDS011;392;48.838;2.322;2023-03-08T03:33:41;25.27;;;17.43;;
819;SDS011;392;48.838;2.322;2023-03-08T03:36:09;23.40;;;17.90;;
819;SDS011;392;48.838;2.322;2023-03-08T03:38:40;24.90;;;17.73;;
819;SDS011;392;48.838;2.322;2023-03-08T03:41:09;25.80;;;18.93;;
819;SDS011;392;48.838;2.322;2023-03-08T03:43:39;26.13;;;17.63;;
819;SDS011;392;48.838;2.322;2023-03-08T03:46:11;23.65;;;17.50;;
819;SDS011;392;48.838;2.322;2023-03-08T03:48:41;26.35;;;18.27;;
819;SDS011;392;48.838;2.322;2023-03-08T03:51:11;21.90;;;16.33;;
819;SDS011;392;48.838;2.322;2023-03-08T03:53:44;20.48;;;16.90;;
819;SDS011;392;48.838;2.322;2023-03-08T03:56:14;23.23;;;17.35;;
819;SDS011;392;48.838;2.322;2023-03-08T03:58:46;23.73;;;18.30;;
819;SDS011;392;48.838;2.322;2023-03-08T04:01:18;21.85;;;17.23;;
819;SDS011;392;48.838;2.322;2023-03-08T04:03:49;22.30;;;16.92;;
819;SDS011;392;48.838;2.322;2023-03-08T04:06:19;23.80;;;17.13;;
819;SDS011;392;48.838;2.322;2023-03-08T04:08:50;24.15;;;17.08;;
819;SDS011;392;48.838;2.322;2023-03-08T04:11:20;21.08;;;16.52;;
819;SDS011;392;48.838;2.322;2023-03-08T04:13:51;19.40;;;15.23;;
819;SDS011;392;48.838;2.322;2023-03-08T04:16:22;21.58;;;15.27;;
819;SDS011;392;48.838;2.322;2023-03-08T04:18:51;20.03;;;14.80;;
819;SDS011;392;48.838;2.322;2023-03-08T04:21:20;18.60;;;13.70;;
819;SDS011;392;48.838;2.322;2023-03-08T04:23:48;21.15;;;14.98;;
819;SDS011;392;48.838;2.322;2023-03-08T04:26:16;21.52;;;15.00;;
819;SDS011;392;48.838;2.322;2023-03-08T04:28:47;17.38;;;13.48;;
819;SDS011;392;48.838;2.322;2023-03-08T04:31:16;17.48;;;12.95;;
819;SDS011;392;48.838;2.322;2023-03-08T04:33:48;16.42;;;12.50;;
819;SDS011;392;48.838;2.322;2023-03-08T04:36:16;15.68;;;12.57;;
819;SDS011;392;48.838;2.322;2023-03-08T04:38:45;16.75;;;12.35;;
819;SDS011;392;48.838;2.322;2023-03-08T04:41:13;14.20;;;11.47;;
819;SDS011;392;48.838;2.322;2023-03-08T04:43:49;16.02;;;11.95;;
819;SDS011;392;48.838;2.322;2023-03-08T04:46:24;14.50;;;10.93;;
819;SDS011;392;48.838;2.322;2023-03-08T04:48:54;14.10;;;12.05;;
819;SDS011;392;48.838;2.322;2023-03-08T04:51:24;16.52;;;11.80;;
819;SDS011;392;48.838;2.322;2023-03-08T04:53:54;15.10;;;11.90;;
819;SDS011;392;48.838;2.322;2023-03-08T04:56:22;15.85;;;11.73;;
819;SDS011;392;48.838;2.322;2023-03-08T04:58:50;14.18;;;11.15;;
819;SDS011;392;48.838;2.322;2023-03-08T05:01:21;13.52;;;10.35;;
819;SDS011;392;48.838;2.322;2023-03-08T05:03:51;12.50;;;10.00;;
819;SDS011;392;48.838;2.322;2023-03-08T05:06:25;13.43;;;10.77;;
819;SDS011;392;48.838;2.322;2023-03-08T05:08:55;14.48;;;11.25;;
819;SDS011;392;48.838;2.322;2023-03-08T05:11:23;12.30;;;9.90;;
819;SDS011;392;48.838;2.322;2023-03-08T05:13:54;13.50;;;10.15;;
819;SDS011;392;48.838;2.322;2023-03-08T05:16:27;11.93;;;10.10;;
819;SDS011;392;48.838;2.322;2023-03-08T05:18:55;12.48;;;10.10;;
819;SDS011;392;48.838;2.322;2023-03-08T05:21:26;12.98;;;10.40;;
819;SDS011;392;48.838;2.322;2023-03-08T05:23:58;12.23;;;9.70;;
819;SDS011;392;48.838;2.322;2023-03-08T05:26:30;11.20;;;9.93;;
819;SDS011;392;48.838;2.322;2023-03-08T05:28:59;11.10;;;9.70;;
819;SDS011;392;48.838;2.322;2023-03-08T05:31:29;10.73;;;9.30;;
819;SDS011;392;48.838;2.322;2023-03-08T05:33:58;10.43;;;9.20;;
819;SDS011;392;48.838;2.322;2023-03-08T05:36:33;10.75;;;9.65;;
819;SDS011;392;48.838;2.322;2023-03-08T05:39:01;10.80;;;9.70;;
819;SDS011;392;48.838;2.322;2023-03-08T05:41:36;9.93;;;8.93;;
819;SDS011;392;48.838;2.322;2023-03-08T05:44:04;9.50;;;8.53;;
819;SDS011;392;48.838;2.322;2023-03-08T05:46:34;9.63;;;8.67;;
819;SDS011;392;48.838;2.322;2023-03-08T05:49:03;9.53;;;8.53;;
819;SDS011;392;48.838;2.322;2023-03-08T05:51:32;8.77;;;7.90;;
819;SDS011;392;48.838;2.322;2023-03-08T05:54:00;9.77;;;8.50;;
819;SDS011;392;48.838;2.322;2023-03-08T05:56:30;8.03;;;7.23;;
819;SDS011;392;48.838;2.322;2023-03-08T05:59:06;8.77;;;7.87;;
819;SDS011;392;48.838;2.322;2023-03-08T06:01:35;9.87;;;8.33;;
819;SDS011;392;48.838;2.322;2023-03-08T06:04:12;8.90;;;8.17;;
819;SDS011;392;48.838;2.322;2023-03-08T06:06:41;8.80;;;7.90;;
819;SDS011;392;48.838;2.322;2023-03-08T06:09:09;7.57;;;6.87;;
819;SDS011;392;48.838;2.322;2023-03-08T06:11:39;8.50;;;7.60;;
819;SDS011;392;48.838;2.322;2023-03-08T06:14:06;8.00;;;7.20;;
819;SDS011;392;48.838;2.322;2023-03-08T06:16:36;8.97;;;8.07;;
819;SDS011;392;48.838;2.322;2023-03-08T06:19:03;6.83;;;6.33;;
819;SDS011;392;48.838;2.322;2023-03-08T06:21:32;8.57;;;7.80;;
819;SDS011;392;48.838;2.322;2023-03-08T06:24:02;7.50;;;6.90;;
819;SDS011;392;48.838;2.322;2023-03-08T06:26:29;8.07;;;7.37;;
819;SDS011;392;48.838;2.322;2023-03-08T06:28:58;7.67;;;7.00;;
819;SDS011;392;48.838;2.322;2023-03-08T06:31:28;7.80;;;7.10;;
819;SDS011;392;48.838;2.322;2023-03-08T06:33:57;6.53;;;6.03;;
819;SDS011;392;48.838;2.322;2023-03-08T06:36:26;7.03;;;6.43;;
819;SDS011;392;48.838;2.322;2023-03-08T06:38:53;6.63;;;6.13;;
819;SDS011;392;48.838;2.322;2023-03-08T06:41:21;6.93;;;6.03;;
819;SDS011;392;48.838;2.322;2023-03-08T06:43:52;5.80;;;5.30;;
819;SDS011;392;48.838;2.322;2023-03-08T06:46:21;6.40;;;5.83;;
819;SDS011;392;48.838;2.322;2023-03-08T06:48:48;5.30;;;4.90;;
819;SDS011;392;48.838;2.322;2023-03-08T06:51:18;4.90;;;4.60;;
819;SDS011;392;48.838;2.322;2023-03-08T06:53:47;4.67;;;4.37;;
819;SDS011;392;48.838;2.322;2023-03-08T06:56:18;4.77;;;4.47;;
819;SDS011;392;48.838;2.322;2023-03-08T06:58:45;4.33;;;4.03;;
819;SDS011;392;48.838;2.322;2023-03-08T07:01:13;4.67;;;4.27;;
819;SDS011;392;48.838;2.322;2023-03-08T07:03:40;4.33;;;4.00;;
819;SDS011;392;48.838;2.322;2023-03-08T07:06:09;3.70;;;3.50;;
819;SDS011;392;48.838;2.322;2023-03-08T07:08:38;4.57;;;4.23;;
819;SDS011;392;48.838;2.322;2023-03-08T07:11:06;3.77;;;3.50;;
819;SDS011;392;48.838;2.322;2023-03-08T07:13:35;3.30;;;3.10;;
819;SDS011;392;48.838;2.322;2023-03-08T07:16:06;3.10;;;2.90;;
819;SDS011;392;48.838;2.322;2023-03-08T07:18:34;3.23;;;3.07;;
819;SDS011;392;48.838;2.322;2023-03-08T07:21:02;3.10;;;2.90;;
819;SDS011;392;48.838;2.322;2023-03-08T07:23:30;2.70;;;2.60;;
819;SDS011;392;48.838;2.322;2023-03-08T07:25:59;2.87;;;2.67;;
819;SDS011;392;48.838;2.322;2023-03-08T07:28:31;2.50;;;2.40;;
819;SDS011;392;48.838;2.322;2023-03-08T07:30:58;2.50;;;2.33;;
819;SDS011;392;48.838;2.322;2023-03-08T07:33:25;2.40;;;1.87;;
819;SDS011;392;48.838;2.322;2023-03-08T07:35:53;2.90;;;2.40;;
819;SDS011;392;48.838;2.322;2023-03-08T07:38:20;2.60;;;2.40;;
819;SDS011;392;48.838;2.322;2023-03-08T07:40:52;2.30;;;2.20;;
819;SDS011;392;48.838;2.322;2023-03-08T07:43:22;2.97;;;2.60;;
819;SDS011;392;48.838;2.322;2023-03-08T07:45:54;2.23;;;2.13;;
819;SDS011;392;48.838;2.322;2023-03-08T07:48:25;1.90;;;1.80;;
819;SDS011;392;48.838;2.322;2023-03-08T07:50:52;2.10;;;2.00;;
819;SDS011;392;48.838;2.322;2023-03-08T07:53:20;2.50;;;2.40;;
819;SDS011;392;48.838;2.322;2023-03-08T07:55:47;1.90;;;1.80;;
819;SDS011;392;48.838;2.322;2023-03-08T07:58:14;1.70;;;1.47;;
819;SDS011;392;48.838;2.322;2023-03-08T08:00:43;2.10;;;2.00;;
819;SDS011;392;48.838;2.322;2023-03-08T08:03:11;2.03;;;1.93;;
819;SDS011;392;48.838;2.322;2023-03-08T08:05:38;1.97;;;1.87;;
819;SDS011;392;48.838;2.322;2023-03-08T08:08:05;2.30;;;2.20;;
819;SDS011;392;48.838;2.322;2023-03-08T08:10:33;2.43;;;2.23;;
819;SDS011;392;48.838;2.322;2023-03-08T08:13:00;2.57;;;2.20;;
819;SDS011;392;48.838;2.322;2023-03-08T08:15:27;2.80;;;2.00;;
819;SDS011;392;48.838;2.322;2023-03-08T08:17:56;2.07;;;1.87;;
819;SDS011;392;48.838;2.322;2023-03-08T08:20:24;2.10;;;2.00;;
819;SDS011;392;48.838;2.322;2023-03-08T08:22:52;2.10;;;1.90;;
819;SDS011;392;48.838;2.322;2023-03-08T08:25:19;2.30;;;2.10;;
819;SDS011;392;48.838;2.322;2023-03-08T08:27:48;2.70;;;1.87;;
819;SDS011;392;48.838;2.322;2023-03-08T08:30:16;2.40;;;1.77;;
819;SDS011;392;48.838;2.322;2023-03-08T08:32:44;3.63;;;2.40;;
819;SDS011;392;48.838;2.322;2023-03-08T08:35:12;5.20;;;2.40;;
819;SDS011;392;48.838;2.322;2023-03-08T08:37:40;2.23;;;2.03;;
819;SDS011;392;48.838;2.322;2023-03-08T08:40:07;3.67;;;2.17;;
819;SDS011;392;48.838;2.322;2023-03-08T08:42:37;2.33;;;1.80;;
819;SDS011;392;48.838;2.322;2023-03-08T08:45:05;4.50;;;1.97;;
819;SDS011;392;48.838;2.322;2023-03-08T08:47:34;1.50;;;1.40;;
819;SDS011;392;48.838;2.322;2023-03-08T08:50:01;3.80;;;1.97;;
819;SDS011;392;48.838;2.322;2023-03-08T08:52:31;2.80;;;1.80;;
819;SDS011;392;48.838;2.322;2023-03-08T08:54:58;3.53;;;1.70;;
819;SDS011;392;48.838;2.322;2023-03-08T08:57:26;2.70;;;2.20;;
819;SDS011;392;48.838;2.322;2023-03-08T08:59:53;3.67;;;1.80;;
819;SDS011;392;48.838;2.322;2023-03-08T09:02:20;7.20;;;4.73;;
819;SDS011;392;48.838;2.322;2023-03-08T09:04:49;1.73;;;1.60;;
819;SDS011;392;48.838;2.322;2023-03-08T09:07:16;2.20;;;2.00;;
819;SDS011;392;48.838;2.322;2023-03-08T09:09:44;3.43;;;1.70;;
819;SDS011;392;48.838;2.322;2023-03-08T09:12:12;1.70;;;1.60;;
819;SDS011;392;48.838;2.322;2023-03-08T09:14:39;2.10;;;1.73;;
819;SDS011;392;48.838;2.322;2023-03-08T09:17:06;3.17;;;1.90;;
819;SDS011;392;48.838;2.322;2023-03-08T09:19:34;3.13;;;1.50;;
819;SDS011;392;48.838;2.322;2023-03-08T09:22:01;1.83;;;1.37;;
819;SDS011;392;48.838;2.322;2023-03-08T09:24:29;3.10;;;1.63;;
819;SDS011;392;48.838;2.322;2023-03-08T09:26:58;2.40;;;1.83;;
819;SDS011;392;48.838;2.322;2023-03-08T09:29:25;2.50;;;1.60;;
819;SDS011;392;48.838;2.322;2023-03-08T09:31:53;1.97;;;1.77;;
819;SDS011;392;48.838;2.322;2023-03-08T09:34:20;2.47;;;1.77;;
819;SDS011;392;48.838;2.322;2023-03-08T09:36:47;1.60;;;1.50;;
819;SDS011;392;48.838;2.322;2023-03-08T09:39:15;2.23;;;1.80;;
819;SDS011;392;48.838;2.322;2023-03-08T09:41:49;1.63;;;1.60;;
819;SDS011;392;48.838;2.322;2023-03-08T09:44:31;1.60;;;1.50;;
819;SDS011;392;48.838;2.322;2023-03-08T09:47:27;2.30;;;1.90;;
819;SDS011;392;48.838;2.322;2023-03-08T09:50:15;4.10;;;1.90;;
819;SDS011;392;48.838;2.322;2023-03-08T09:52:59;2.00;;;1.83;;
819;SDS011;392;48.838;2.322;2023-03-08T09:55:35;2.67;;;2.30;;
819;SDS011;392;48.838;2.322;2023-03-08T09:58:13;2.73;;;2.63;;
819;SDS011;392;48.838;2.322;2023-03-08T10:00:49;2.20;;;2.00;;
819;SDS011;392;48.838;2.322;2023-03-08T10:03:22;3.67;;;2.27;;
819;SDS011;392;48.838;2.322;2023-03-08T10:06:26;2.60;;;2.10;;
819;SDS011;392;48.838;2.322;2023-03-08T10:09:01;2.63;;;1.70;;
819;SDS011;392;48.838;2.322;2023-03-08T10:11:37;2.23;;;2.13;;
819;SDS011;392;48.838;2.322;2023-03-08T10:14:12;2.23;;;2.00;;
819;SDS011;392;48.838;2.322;2023-03-08T10:16:48;2.60;;;1.93;;
819;SDS011;392;48.838;2.322;2023-03-08T10:19:20;2.43;;;2.23;;
819;SDS011;392;48.838;2.322;2023-03-08T10:21:54;2.60;;;2.00;;
819;SDS011;392;48.838;2.322;2023-03-08T10:24:25;2.27;;;2.07;;
819;SDS011;392;48.838;2.322;2023-03-08T10:26:59;2.93;;;2.60;;
819;SDS011;392;48.838;2.322;2023-03-08T10:29:35;2.67;;;2.10;;
819;SDS011;392;48.838;2.322;2023-03-08T10:32:04;2.20;;;2.00;;
819;SDS011;392;48.838;2.322;2023-03-08T10:34:36;2.90;;;1.93;;
819;SDS011;392;48.838;2.322;2023-03-08T10:37:04;1.63;;;1.53;;
819;SDS011;392;48.838;2.322;2023-03-08T10:39:32;3.47;;;1.93;;
819;SDS011;392;48.838;2.322;2023-03-08T10:42:04;2.80;;;2.20;;
819;SDS011;392;48.838;2.322;2023-03-08T10:44:41;1.80;;;1.70;;
819;SDS011;392;48.838;2.322;2023-03-08T10:47:19;2.83;;;1.77;;
819;SDS011;392;48.838;2.322;2023-03-08T10:49:48;4.43;;;2.50;;
819;SDS011;392;48.838;2.322;2023-03-08T10:52:29;2.63;;;1.87;;
819;SDS011;392;48.838;2.322;2023-03-08T10:55:02;1.37;;;1.37;;
819;SDS011;392;48.838;2.322;2023-03-08T10:57:32;2.90;;;2.17;;
819;SDS011;392;48.838;2.322;2023-03-08T11:00:01;1.60;;;1.50;;
819;SDS011;392;48.838;2.322;2023-03-08T11:02:39;1.43;;;1.33;;
819;SDS011;392;48.838;2.322;2023-03-08T11:05:16;2.20;;;1.90;;
819;SDS011;392;48.838;2.322;2023-03-08T11:07:49;1.80;;;1.70;;
819;SDS011;392;48.838;2.322;2023-03-08T11:10:19;1.60;;;1.50;;
819;SDS011;392;48.838;2.322;2023-03-08T11:12:49;1.80;;;1.70;;
819;SDS011;392;48.838;2.322;2023-03-08T11:15:28;2.13;;;1.80;;
819;SDS011;392;48.838;2.322;2023-03-08T11:18:01;1.90;;;1.80;;
819;SDS011;392;48.838;2.322;2023-03-08T11:20:41;2.20;;;1.90;;
819;SDS011;392;48.838;2.322;2023-03-08T11:23:14;2.00;;;1.90;;
819;SDS011;392;48.838;2.322;2023-03-08T11:25:50;2.10;;;1.93;;
819;SDS011;392;48.838;2.322;2023-03-08T11:28:31;2.53;;;2.33;;
819;SDS011;392;48.838;2.322;2023-03-08T11:31:24;1.80;;;1.80;;
819;SDS011;392;48.838;2.322;2023-03-08T11:37:01;2.50;;;2.30;;
819;SDS011;392;48.838;2.322;2023-03-08T11:39:41;2.10;;;1.70;;
819;SDS011;392;48.838;2.322;2023-03-08T11:42:15;1.90;;;1.80;;
819;SDS011;392;48.838;2.322;2023-03-08T11:44:54;2.20;;;2.10;;
819;SDS011;392;48.838;2.322;2023-03-08T11:50:51;1.90;;;1.80;;
819;SDS011;392;48.838;2.322;2023-03-08T11:53:28;1.53;;;1.20;;
819;SDS011;392;48.838;2.322;2023-03-08T11:59:09;1.50;;;1.40;;
819;SDS011;392;48.838;2.322;2023-03-08T12:01:46;5.13;;;1.60;;
819;SDS011;392;48.838;2.322;2023-03-08T12:04:19;3.67;;;1.57;;
819;SDS011;392;48.838;2.322;2023-03-08T12:06:54;1.60;;;1.50;;
819;SDS011;392;48.838;2.322;2023-03-08T12:09:23;1.30;;;1.20;;
819;SDS011;392;48.838;2.322;2023-03-08T12:11:57;1.33;;;1.30;;
819;SDS011;392;48.838;2.322;2023-03-08T12:14:31;1.20;;;1.20;;
819;SDS011;392;48.838;2.322;2023-03-08T12:17:03;1.83;;;1.50;;
819;SDS011;392;48.838;2.322;2023-03-08T12:19:40;1.30;;;1.30;;
819;SDS011;392;48.838;2.322;2023-03-08T12:22:19;4.00;;;2.63;;
819;SDS011;392;48.838;2.322;2023-03-08T12:24:59;1.10;;;1.10;;
819;SDS011;392;48.838;2.322;2023-03-08T12:27:35;1.47;;;1.37;;
819;SDS011;392;48.838;2.322;2023-03-08T12:30:14;1.40;;;1.30;;
819;SDS011;392;48.838;2.322;2023-03-08T12:32:49;1.70;;;1.30;;
819;SDS011;392;48.838;2.322;2023-03-08T12:35:26;1.73;;;1.63;;
819;SDS011;392;48.838;2.322;2023-03-08T12:37:59;1.70;;;1.60;;
819;SDS011;392;48.838;2.322;2023-03-08T12:40:36;2.90;;;2.30;;
819;SDS011;392;48.838;2.322;2023-03-08T12:43:08;1.40;;;1.30;;
819;SDS011;392;48.838;2.322;2023-03-08T12:45:37;3.70;;;1.80;;
819;SDS011;392;48.838;2.322;2023-03-08T12:48:21;1.43;;;1.33;;
819;SDS011;392;48.838;2.322;2023-03-08T12:50:56;2.33;;;2.20;;
819;SDS011;392;48.838;2.322;2023-03-08T12:53:34;2.20;;;1.73;;
819;SDS011;392;48.838;2.322;2023-03-08T12:56:12;1.90;;;1.80;;
819;SDS011;392;48.838;2.322;2023-03-08T12:58:49;1.80;;;1.70;;
819;SDS011;392;48.838;2.322;2023-03-08T13:01:23;1.97;;;1.60;;
819;SDS011;392;48.838;2.322;2023-03-08T13:04:02;3.60;;;3.30;;
819;SDS011;392;48.838;2.322;2023-03-08T13:06:49;5.20;;;3.27;;
819;SDS011;392;48.838;2.322;2023-03-08T13:09:42;2.90;;;1.90;;
819;SDS011;392;48.838;2.322;2023-03-08T13:12:22;1.47;;;1.37;;
819;SDS011;392;48.838;2.322;2023-03-08T13:14:59;1.40;;;1.30;;
819;SDS011;392;48.838;2.322;2023-03-08T13:17:47;2.10;;;1.30;;
819;SDS011;392;48.838;2.322;2023-03-08T13:20:26;1.33;;;1.23;;
819;SDS011;392;48.838;2.322;2023-03-08T13:23:07;1.57;;;1.47;;
819;SDS011;392;48.838;2.322;2023-03-08T13:25:52;2.97;;;1.20;;
819;SDS011;392;48.838;2.322;2023-03-08T13:28:41;2.13;;;1.90;;
819;SDS011;392;48.838;2.322;2023-03-08T13:31:12;1.73;;;1.63;;
819;SDS011;392;48.838;2.322;2023-03-08T13:33:41;2.03;;;1.87;;
819;SDS011;392;48.838;2.322;2023-03-08T13:36:16;2.07;;;1.63;;
819;SDS011;392;48.838;2.322;2023-03-08T13:38:54;1.63;;;1.53;;
819;SDS011;392;48.838;2.322;2023-03-08T13:41:32;3.17;;;2.30;;
819;SDS011;392;48.838;2.322;2023-03-08T13:44:02;1.60;;;1.50;;
819;SDS011;392;48.838;2.322;2023-03-08T13:46:34;2.13;;;1.93;;
819;SDS011;392;48.838;2.322;2023-03-08T13:49:08;1.77;;;1.67;;
819;SDS011;392;48.838;2.322;2023-03-08T13:51:45;4.77;;;2.37;;
819;SDS011;392;48.838;2.322;2023-03-08T13:54:18;2.60;;;2.37;;
819;SDS011;392;48.838;2.322;2023-03-08T13:56:55;2.40;;;2.20;;
819;SDS011;392;48.838;2.322;2023-03-08T13:59:24;2.10;;;1.90;;
819;SDS011;392;48.838;2.322;2023-03-08T14:01:52;2.77;;;2.57;;
819;SDS011;392;48.838;2.322;2023-03-08T14:04:20;2.87;;;2.70;;
819;SDS011;392;48.838;2.322;2023-03-08T14:06:53;1.53;;;1.40;;
819;SDS011;392;48.838;2.322;2023-03-08T14:09:22;1.60;;;1.60;;
819;SDS011;392;48.838;2.322;2023-03-08T14:11:56;1.60;;;1.50;;
819;SDS011;392;48.838;2.322;2023-03-08T14:14:28;2.20;;;2.10;;
819;SDS011;392;48.838;2.322;2023-03-08T14:16:57;1.60;;;1.40;;
819;SDS011;392;48.838;2.322;2023-03-08T14:19:26;1.53;;;1.47;;
819;SDS011;392;48.838;2.322;2023-03-08T14:21:57;2.00;;;1.90;;
819;SDS011;392;48.838;2.322;2023-03-08T14:24:26;1.97;;;1.80;;
819;SDS011;392;48.838;2.322;2023-03-08T14:26:59;1.90;;;1.80;;
819;SDS011;392;48.838;2.322;2023-03-08T14:29:31;2.00;;;1.90;;
819;SDS011;392;48.838;2.322;2023-03-08T14:32:01;1.87;;;1.77;;
819;SDS011;392;48.838;2.322;2023-03-08T14:34:32;3.73;;;2.57;;
819;SDS011;392;48.838;2.322;2023-03-08T14:37:05;2.90;;;2.30;;
819;SDS011;392;48.838;2.322;2023-03-08T14:39:42;2.10;;;2.00;;
819;SDS011;392;48.838;2.322;2023-03-08T14:42:17;2.10;;;1.90;;
819;SDS011;392;48.838;2.322;2023-03-08T14:44:49;2.50;;;2.40;;
819;SDS011;392;48.838;2.322;2023-03-08T14:47:20;2.17;;;2.00;;
819;SDS011;392;48.838;2.322;2023-03-08T14:49:53;2.27;;;2.10;;
819;SDS011;392;48.838;2.322;2023-03-08T14:52:22;2.63;;;2.43;;
819;SDS011;392;48.838;2.322;2023-03-08T14:54:54;4.10;;;3.60;;
819;SDS011;392;48.838;2.322;2023-03-08T14:57:23;6.00;;;5.50;;
819;SDS011;392;48.838;2.322;2023-03-08T14:59:53;7.73;;;6.57;;
819;SDS011;392;48.838;2.322;2023-03-08T15:02:31;6.37;;;5.87;;
819;SDS011;392;48.838;2.322;2023-03-08T15:04:59;4.03;;;3.67;;
819;SDS011;392;48.838;2.322;2023-03-08T15:07:27;6.20;;;4.83;;
819;SDS011;392;48.838;2.322;2023-03-08T15:09:58;4.90;;;3.70;;
819;SDS011;392;48.838;2.322;2023-03-08T15:12:31;5.03;;;4.70;;
819;SDS011;392;48.838;2.322;2023-03-08T15:14:58;6.00;;;5.60;;
819;SDS011;392;48.838;2.322;2023-03-08T15:17:26;3.30;;;3.10;;
819;SDS011;392;48.838;2.322;2023-03-08T15:19:53;2.87;;;2.67;;
819;SDS011;392;48.838;2.322;2023-03-08T15:22:21;2.90;;;2.70;;
819;SDS011;392;48.838;2.322;2023-03-08T15:24:48;2.93;;;2.73;;
819;SDS011;392;48.838;2.322;2023-03-08T15:27:15;4.47;;;4.10;;
819;SDS011;392;48.838;2.322;2023-03-08T15:29:44;5.03;;;4.77;;
819;SDS011;392;48.838;2.322;2023-03-08T15:32:12;6.53;;;6.00;;
819;SDS011;392;48.838;2.322;2023-03-08T15:34:39;3.00;;;2.80;;
819;SDS011;392;48.838;2.322;2023-03-08T15:37:08;3.10;;;2.90;;
819;SDS011;392;48.838;2.322;2023-03-08T15:39:39;3.33;;;2.63;;
819;SDS011;392;48.838;2.322;2023-03-08T15:42:06;2.70;;;2.20;;
819;SDS011;392;48.838;2.322;2023-03-08T15:44:34;3.00;;;2.77;;
819;SDS011;392;48.838;2.322;2023-03-08T15:47:02;3.17;;;2.97;;
819;SDS011;392;48.838;2.322;2023-03-08T15:49:30;1.60;;;1.50;;
819;SDS011;392;48.838;2.322;2023-03-08T15:51:57;2.07;;;1.97;;
819;SDS011;392;48.838;2.322;2023-03-08T15:54:24;3.63;;;3.43;;
819;SDS011;392;48.838;2.322;2023-03-08T15:56:52;1.93;;;1.83;;
819;SDS011;392;48.838;2.322;2023-03-08T15:59:19;1.70;;;1.60;;
819;SDS011;392;48.838;2.322;2023-03-08T16:01:46;1.53;;;1.30;;
819;SDS011;392;48.838;2.322;2023-03-08T16:04:15;1.50;;;1.50;;
819;SDS011;392;48.838;2.322;2023-03-08T16:06:42;5.33;;;5.03;;
819;SDS011;392;48.838;2.322;2023-03-08T16:09:09;2.07;;;1.87;;